Time;durP1;ratioP1;P1;durP2;ratioP2;P2;SDS_P1;SDS_P2;PMS_P1;PMS_P2;Temp;Humidity;BMP_temperature;BMP_pressure;BME280_temperature;BME280_humidity;BME280_pressure;Samples;Min_cycle;Max_cycle;Signal;HPM_P1;HPM_P2
2023/04/04 00:00:38;;;;;;;8.00;3.45;;;;;;;4.34;65.05;102869.84;5033872;28;20041;-65
2023/04/04 00:03:06;;;;;;;9.43;3.70;;;;;;;4.26;65.03;102876.13;5035912;28;20417;-65
2023/04/04 00:05:34;;;;;;;6.30;3.25;;;;;;;4.18;65.32;102876.97;5036402;28;20060;-65
2023/04/04 00:08:03;;;;;;;5.63;2.92;;;;;;;4.10;65.27;102882.41;5018907;28;20103;-64
2023/04/04 00:10:31;;;;;;;8.57;3.50;;;;;;;4.05;65.95;102879.41;5043589;28;20460;-66
2023/04/04 00:12:58;;;;;;;7.22;3.35;;;;;;;4.01;65.64;102883.44;5035332;28;20049;-63
2023/04/04 00:15:26;;;;;;;6.90;3.28;;;;;;;3.97;66.41;102880.25;5034831;28;20037;-66
2023/04/04 00:17:54;;;;;;;7.60;3.35;;;;;;;4.01;66.58;102883.44;5036410;28;20516;-64
2023/04/04 00:20:22;;;;;;;7.15;3.20;;;;;;;4.05;66.23;102882.09;5041170;28;20041;-64
2023/04/04 00:22:49;;;;;;;10.50;3.25;;;;;;;4.09;66.03;102875.34;5039865;28;20049;-63
2023/04/04 00:25:17;;;;;;;8.07;3.60;;;;;;;4.08;65.99;102881.72;5038211;28;20072;-62
2023/04/04 00:27:46;;;;;;;7.90;3.30;;;;;;;4.04;66.21;102883.94;5036264;28;20479;-65
2023/04/04 00:30:14;;;;;;;7.00;3.08;;;;;;;3.91;66.21;102882.81;5066437;28;20131;-65
2023/04/04 00:32:43;;;;;;;9.07;3.28;;;;;;;3.83;67.27;102880.97;5037236;28;20094;-65
2023/04/04 00:35:12;;;;;;;8.10;3.30;;;;;;;3.87;67.27;102881.47;5055094;28;20059;-64
2023/04/04 00:37:39;;;;;;;8.32;3.30;;;;;;;3.92;66.95;102882.66;5039263;28;20057;-65
2023/04/04 00:40:08;;;;;;;7.32;3.55;;;;;;;3.86;66.74;102885.19;5035099;28;20398;-65
2023/04/04 00:42:36;;;;;;;7.57;3.55;;;;;;;3.74;67.38;102882.00;5046598;28;20045;-70
2023/04/04 00:45:07;;;;;;;7.95;3.45;;;;;;;3.74;67.35;102873.91;5035814;28;20067;-64
2023/04/04 00:47:36;;;;;;;7.10;3.15;;;;;;;3.76;67.92;102871.91;5034611;28;20060;-65
2023/04/04 00:50:04;;;;;;;9.43;3.63;;;;;;;3.84;67.52;102878.09;5034309;28;20084;-65
2023/04/04 00:52:32;;;;;;;7.35;3.08;;;;;;;3.90;67.33;102873.88;5027642;28;20072;-64
2023/04/04 00:55:00;;;;;;;7.85;3.10;;;;;;;3.88;66.76;102877.75;5053624;28;20041;-64
2023/04/04 00:57:28;;;;;;;9.13;3.40;;;;;;;3.89;67.21;102872.19;5055124;28;20144;-64
2023/04/04 00:59:57;;;;;;;7.88;3.47;;;;;;;3.95;66.76;102873.38;5055048;28;20044;-64
2023/04/04 01:02:25;;;;;;;8.57;3.40;;;;;;;4.00;66.13;102865.59;5038681;28;20044;-64
2023/04/04 01:04:54;;;;;;;8.48;3.20;;;;;;;4.01;66.65;102867.25;5037677;28;20127;-64
2023/04/04 01:07:21;;;;;;;8.40;3.33;;;;;;;4.06;67.06;102867.56;5024790;28;20107;-65
2023/04/04 01:09:50;;;;;;;11.95;3.40;;;;;;;4.09;66.35;102867.25;5017557;28;20065;-65
2023/04/04 01:12:18;;;;;;;7.05;3.35;;;;;;;4.15;66.84;102854.91;5032817;28;20052;-65
2023/04/04 01:14:46;;;;;;;6.45;3.40;;;;;;;4.20;66.42;102850.66;5049776;28;20074;-65
2023/04/04 01:17:14;;;;;;;8.00;3.38;;;;;;;4.23;66.42;102854.84;5054083;28;20075;-64
2023/04/04 01:20:05;;;;;;;6.80;3.10;;;;;;;4.20;66.18;102856.06;5036267;28;20140;-63
2023/04/04 01:22:43;;;;;;;7.38;3.20;;;;;;;4.14;66.38;102843.28;5025985;28;20151;-64
2023/04/04 01:25:11;;;;;;;9.88;3.80;;;;;;;4.11;66.94;102853.56;5050393;28;20495;-65
2023/04/04 01:27:41;;;;;;;8.02;3.38;;;;;;;4.07;67.11;102857.66;5037803;28;20051;-64
2023/04/04 01:30:14;;;;;;;6.90;3.20;;;;;;;4.02;66.74;102852.78;5053261;28;20052;-64
2023/04/04 01:32:50;;;;;;;9.65;3.58;;;;;;;3.93;67.25;102848.41;5045305;28;20049;-64
2023/04/04 01:35:32;;;;;;;9.38;3.50;;;;;;;3.86;67.15;102853.66;5042164;28;20477;-62
2023/04/04 01:38:26;;;;;;;8.60;3.50;;;;;;;3.74;68.23;102855.88;5034232;28;20059;-65
2023/04/04 01:41:07;;;;;;;6.85;3.42;;;;;;;3.66;69.16;102847.81;5054817;28;20124;-64
2023/04/04 01:43:37;;;;;;;8.77;3.70;;;;;;;3.56;69.43;102857.94;5026582;28;20517;-65
2023/04/04 01:46:05;;;;;;;8.25;3.55;;;;;;;3.48;69.63;102864.19;5028475;28;20049;-64
2023/04/04 01:48:33;;;;;;;7.35;3.45;;;;;;;3.48;70.29;102849.88;5039313;28;20071;-64
2023/04/04 01:51:05;;;;;;;8.50;3.42;;;;;;;3.47;70.22;102849.03;5059075;28;20428;-64
2023/04/04 01:53:33;;;;;;;7.55;3.30;;;;;;;3.39;70.02;102847.19;5036954;28;20037;-64
2023/04/04 01:56:01;;;;;;;7.72;3.55;;;;;;;3.46;71.20;102841.09;5005084;28;20046;-65
2023/04/04 01:58:31;;;;;;;9.95;3.30;;;;;;;3.61;70.20;102842.13;5005678;28;20049;-66
2023/04/04 02:01:00;;;;;;;7.38;3.63;;;;;;;3.61;69.33;102844.81;5021459;28;20401;-65
2023/04/04 02:03:27;;;;;;;10.25;3.42;;;;;;;3.56;69.25;102849.84;5016815;28;20121;-65
2023/04/04 02:05:55;;;;;;;7.63;3.30;;;;;;;3.42;69.60;102841.47;5021924;28;20048;-66
2023/04/04 02:08:23;;;;;;;7.70;3.30;;;;;;;3.38;70.59;102844.66;5033359;28;20404;-64
2023/04/04 02:10:57;;;;;;;7.75;3.17;;;;;;;3.43;70.21;102847.69;5033450;28;20073;-63
2023/04/04 02:13:26;;;;;;;7.00;3.35;;;;;;;3.44;69.55;102843.13;5016610;28;20045;-65
2023/04/04 02:15:55;;;;;;;7.82;3.28;;;;;;;3.41;69.70;102845.16;5016538;28;20042;-63
2023/04/04 02:18:23;;;;;;;7.20;3.13;;;;;;;3.42;70.11;102849.53;5035942;28;20045;-65
2023/04/04 02:20:57;;;;;;;7.35;3.55;;;;;;;3.46;69.58;102851.88;5036315;28;20057;-65
2023/04/04 02:23:25;;;;;;;5.50;2.97;;;;;;;3.41;69.03;102855.94;5048210;28;20061;-65
2023/04/04 02:25:54;;;;;;;10.95;3.58;;;;;;;3.30;69.41;102863.53;5032462;28;20045;-64
2023/04/04 02:28:21;;;;;;;6.72;3.45;;;;;;;3.20;70.17;102869.94;5047795;28;20056;-64
2023/04/04 02:30:49;;;;;;;9.00;3.83;;;;;;;3.15;70.29;102868.75;5036024;28;20086;-64
2023/04/04 02:33:17;;;;;;;7.35;3.40;;;;;;;3.05;70.77;102866.22;5044364;28;20041;-63
2023/04/04 02:35:46;;;;;;;7.55;3.58;;;;;;;2.99;70.94;102859.66;5017039;28;20046;-65
2023/04/04 02:38:13;;;;;;;8.25;3.30;;;;;;;3.08;71.19;102862.34;5024223;28;20084;-64
2023/04/04 02:40:47;;;;;;;10.85;3.53;;;;;;;3.10;71.44;102863.88;5052424;28;20486;-64
2023/04/04 02:43:15;;;;;;;8.80;3.45;;;;;;;3.12;71.23;102861.00;5048152;28;20046;-65
2023/04/04 02:45:46;;;;;;;7.03;3.58;;;;;;;3.06;70.67;102848.22;5032379;28;20042;-65
2023/04/04 02:48:20;;;;;;;7.22;3.20;;;;;;;3.10;71.83;102846.84;5037768;28;20489;-64
2023/04/04 02:50:51;;;;;;;8.00;3.35;;;;;;;3.12;71.80;102850.22;5052327;28;20392;-63
2023/04/04 02:53:18;;;;;;;7.50;3.42;;;;;;;3.18;71.52;102855.78;5040390;28;20053;-65
2023/04/04 02:55:48;;;;;;;7.38;3.33;;;;;;;3.25;70.50;102850.56;5032240;28;20128;-65
2023/04/04 02:58:16;;;;;;;9.45;3.47;;;;;;;3.26;70.58;102849.56;5033239;28;20049;-65
2023/04/04 03:00:46;;;;;;;9.55;3.40;;;;;;;3.27;70.89;102853.94;5056169;28;20132;-64
2023/04/04 03:03:14;;;;;;;9.35;3.85;;;;;;;3.28;70.64;102844.84;5028835;28;20099;-65
2023/04/04 03:05:45;;;;;;;7.13;3.72;;;;;;;3.28;70.15;102841.31;5023235;28;20454;-64
2023/04/04 03:08:12;;;;;;;6.60;3.42;;;;;;;3.23;70.94;102843.69;5040247;28;20049;-65
2023/04/04 03:10:40;;;;;;;5.88;3.30;;;;;;;3.15;70.31;102841.81;5056584;28;20051;-64
2023/04/04 03:13:08;;;;;;;8.07;3.75;;;;;;;3.03;70.79;102841.31;5048087;28;20052;-64
2023/04/04 03:15:36;;;;;;;9.65;3.35;;;;;;;2.93;71.90;102852.22;5020901;28;20057;-64
2023/04/04 03:18:04;;;;;;;8.40;3.88;;;;;;;2.98;72.84;102839.13;5025876;28;20049;-64
2023/04/04 03:20:34;;;;;;;6.65;3.50;;;;;;;3.09;71.95;102842.50;5035297;28;20108;-69
2023/04/04 03:23:02;;;;;;;8.05;3.40;;;;;;;3.16;72.00;102835.41;5042042;28;20049;-64
2023/04/04 03:25:30;;;;;;;6.60;3.20;;;;;;;3.17;71.47;102831.72;5037693;28;20064;-64
2023/04/04 03:27:58;;;;;;;7.15;3.38;;;;;;;3.16;71.78;102835.41;5032712;28;20069;-63
2023/04/04 03:30:26;;;;;;;7.32;3.53;;;;;;;3.12;71.58;102834.06;5022010;28;20047;-65
2023/04/04 03:32:55;;;;;;;10.30;3.72;;;;;;;3.12;71.95;102831.38;5040594;28;20382;-65
2023/04/04 03:35:22;;;;;;;7.55;3.50;;;;;;;3.18;71.76;102828.03;5033581;28;20077;-64
2023/04/04 03:37:53;;;;;;;9.02;3.63;;;;;;;3.24;71.42;102831.88;5033013;28;20058;-65
2023/04/04 03:40:22;;;;;;;9.30;3.80;;;;;;;3.21;71.08;102830.38;5032532;28;20112;-63
2023/04/04 03:42:50;;;;;;;8.65;3.55;;;;;;;3.22;71.35;102828.50;5039228;28;20041;-64
2023/04/04 03:45:19;;;;;;;8.10;3.55;;;;;;;3.21;70.77;102827.66;5052050;28;20060;-64
2023/04/04 03:47:47;;;;;;;6.13;3.58;;;;;;;3.22;71.54;102821.25;5052008;28;20121;-64
2023/04/04 03:50:15;;;;;;;8.35;3.45;;;;;;;3.21;71.05;102822.28;5048399;28;20049;-64
2023/04/04 03:52:49;;;;;;;6.28;3.53;;;;;;;3.07;70.95;102828.34;5034970;28;20098;-64
2023/04/04 03:55:18;;;;;;;9.32;3.60;;;;;;;2.90;71.92;102831.03;5053553;28;20041;-64
2023/04/04 03:57:46;;;;;;;9.35;3.90;;;;;;;2.81;72.56;102831.19;5042769;28;20049;-66
2023/04/04 04:00:15;;;;;;;7.30;3.67;;;;;;;2.73;73.19;102827.47;5031934;28;20068;-64
2023/04/04 04:02:44;;;;;;;8.05;3.75;;;;;;;2.73;73.90;102824.78;5014078;28;20055;-68
2023/04/04 04:05:12;;;;;;;8.63;4.00;;;;;;;2.75;73.72;102822.78;5033870;28;20068;-64
2023/04/04 04:07:43;;;;;;;7.75;3.63;;;;;;;2.79;73.84;102823.31;5045347;28;20469;-64
2023/04/04 04:10:12;;;;;;;8.73;4.20;;;;;;;2.74;73.79;102825.63;5051552;28;20045;-65
2023/04/04 04:12:41;;;;;;;9.48;3.70;;;;;;;2.70;73.55;102813.53;5036271;28;20397;-64
2023/04/04 04:15:09;;;;;;;9.93;3.85;;;;;;;2.72;74.38;102820.44;5036239;28;20048;-64
2023/04/04 04:17:40;;;;;;;7.60;3.63;;;;;;;2.76;73.98;102815.53;5030847;28;20104;-63
2023/04/04 04:20:11;;;;;;;9.15;3.50;;;;;;;2.76;73.49;102818.22;5016500;28;20453;-64
2023/04/04 04:22:47;;;;;;;7.97;3.50;;;;;;;2.75;73.69;102821.94;4998838;28;20112;-66
2023/04/04 04:25:16;;;;;;;9.70;4.18;;;;;;;2.70;74.11;102818.91;5021726;28;20546;-65
2023/04/04 04:27:57;;;;;;;10.27;4.25;;;;;;;2.70;74.25;102824.31;5039266;28;20124;-65
2023/04/04 04:30:26;;;;;;;8.13;4.13;;;;;;;2.72;74.43;102814.22;5062552;28;20056;-65
2023/04/04 04:32:55;;;;;;;8.32;3.65;;;;;;;2.74;73.72;102820.25;5051160;28;20049;-65
2023/04/04 04:35:29;;;;;;;8.98;3.97;;;;;;;2.72;73.43;102823.13;5042760;28;20102;-63
2023/04/04 04:37:57;;;;;;;10.40;3.83;;;;;;;2.64;73.63;102819.56;5017578;28;20053;-64
2023/04/04 04:40:26;;;;;;;8.48;3.70;;;;;;;2.57;74.69;102819.38;5033782;28;20107;-65
2023/04/04 04:42:59;;;;;;;9.40;3.67;;;;;;;2.53;74.56;102818.88;5035726;28;20128;-65
2023/04/04 04:45:27;;;;;;;8.32;4.05;;;;;;;2.50;74.67;102827.31;5021437;28;20064;-66
2023/04/04 04:48:05;;;;;;;8.02;4.03;;;;;;;2.46;75.18;102827.78;5054562;28;20102;-68
2023/04/04 04:50:38;;;;;;;9.90;4.75;;;;;;;2.30;75.09;102834.78;5041354;28;20110;-64
2023/04/04 04:53:08;;;;;;;11.15;4.20;;;;;;;2.22;76.32;102836.63;5018271;28;20099;-65
2023/04/04 04:55:36;;;;;;;7.45;3.70;;;;;;;2.23;76.86;102832.91;5036228;28;20468;-64
2023/04/04 04:58:09;;;;;;;9.98;4.13;;;;;;;2.32;76.66;102834.63;5054169;28;20072;-66
2023/04/04 05:00:41;;;;;;;9.65;4.00;;;;;;;2.42;76.39;102843.41;5043478;28;20049;-63
2023/04/04 05:03:10;;;;;;;9.15;3.70;;;;;;;2.49;75.52;102839.03;5042587;28;20052;-62
2023/04/04 05:05:45;;;;;;;9.52;3.70;;;;;;;2.53;75.13;102835.03;5036104;28;20059;-64
2023/04/04 05:08:14;;;;;;;8.68;3.83;;;;;;;2.59;74.97;102830.81;5034279;28;20524;-64
2023/04/04 05:10:57;;;;;;;9.02;3.83;;;;;;;2.64;74.84;102833.03;5019372;28;20404;-64
2023/04/04 05:13:28;;;;;;;7.50;3.70;;;;;;;2.64;73.60;102835.72;5041279;28;20043;-64
2023/04/04 05:15:57;;;;;;;9.48;4.07;;;;;;;2.58;73.71;102837.22;5053956;28;20045;-63
2023/04/04 05:18:26;;;;;;;8.80;3.72;;;;;;;2.53;74.59;102837.72;5054213;28;20041;-64
2023/04/04 05:20:54;;;;;;;10.00;4.05;;;;;;;2.58;75.03;102842.63;5040147;28;20048;-64
2023/04/04 05:23:25;;;;;;;8.10;3.83;;;;;;;2.61;74.49;102838.75;5036545;28;20107;-64
2023/04/04 05:25:53;;;;;;;6.47;3.50;;;;;;;2.64;74.60;102835.72;5050832;28;20045;-64
2023/04/04 05:28:22;;;;;;;8.82;3.67;;;;;;;2.69;73.94;102839.59;5033862;28;20120;-65
2023/04/04 05:30:53;;;;;;;9.68;4.18;;;;;;;2.69;73.42;102836.88;5016775;28;20065;-63
2023/04/04 05:33:25;;;;;;;7.60;3.38;;;;;;;2.62;74.18;102848.50;5065264;28;20386;-66
2023/04/04 05:36:05;;;;;;;9.20;4.55;;;;;;;2.53;74.52;102851.19;5046840;28;20501;-63
2023/04/04 05:38:40;;;;;;;9.27;3.92;;;;;;;2.52;75.07;102854.03;5033079;28;20409;-65
2023/04/04 05:41:08;;;;;;;9.05;3.92;;;;;;;2.51;74.21;102855.88;5032397;28;20064;-66
2023/04/04 05:43:35;;;;;;;8.68;3.97;;;;;;;2.44;74.58;102857.53;5018828;28;20049;-64
2023/04/04 05:46:11;;;;;;;9.38;3.70;;;;;;;2.27;74.63;102862.03;5057441;28;20072;-64
2023/04/04 05:48:44;;;;;;;10.93;4.22;;;;;;;2.12;75.68;102860.97;5051413;28;20052;-64
2023/04/04 05:51:13;;;;;;;8.45;4.03;;;;;;;2.08;76.35;102863.13;5034896;28;20084;-66
2023/04/04 05:53:50;;;;;;;8.00;4.00;;;;;;;2.06;76.40;102867.81;5039514;28;20041;-65
2023/04/04 05:56:23;;;;;;;9.95;4.40;;;;;;;1.88;76.22;102872.44;5038259;28;20500;-65
2023/04/04 05:58:53;;;;;;;9.05;4.60;;;;;;;1.79;77.06;102863.47;5018627;28;20049;-66
2023/04/04 06:01:22;;;;;;;10.68;4.68;;;;;;;1.79;77.63;102868.03;5033962;28;20053;-64
2023/04/04 06:03:52;;;;;;;7.50;4.22;;;;;;;1.93;77.97;102853.97;5037331;28;20100;-65
2023/04/04 06:06:26;;;;;;;7.95;4.28;;;;;;;2.08;76.99;102860.44;5031986;28;20040;-65
2023/04/04 06:08:54;;;;;;;9.90;3.83;;;;;;;1.91;76.58;102856.81;5018975;28;20049;-64
2023/04/04 06:11:22;;;;;;;8.95;4.43;;;;;;;1.81;77.48;102860.66;4322372;28;10000743;-66
2023/04/04 06:13:53;;;;;;;10.15;3.80;;;;;;;1.68;77.94;102867.28;5015011;28;20050;-65
2023/04/04 06:16:22;;;;;;;8.02;3.78;;;;;;;1.69;78.79;102870.81;5035534;28;20052;-66
2023/04/04 06:18:50;;;;;;;8.30;3.83;;;;;;;1.81;78.48;102876.78;5030259;28;20116;-66
2023/04/04 06:21:17;;;;;;;7.03;3.53;;;;;;;1.88;77.48;102873.28;5014773;28;20079;-65
2023/04/04 06:23:45;;;;;;;7.50;3.80;;;;;;;1.98;77.99;102878.53;5013543;28;20050;-66
2023/04/04 06:26:13;;;;;;;10.90;4.28;;;;;;;2.06;76.77;102881.25;5027858;28;20045;-64
2023/04/04 06:28:49;;;;;;;8.27;3.72;;;;;;;2.07;76.54;102872.19;5045351;28;20049;-65
2023/04/04 06:31:36;;;;;;;9.10;3.70;;;;;;;2.10;77.09;102868.34;5015738;28;20136;-66
2023/04/04 06:34:09;;;;;;;6.68;3.47;;;;;;;2.21;77.03;102877.97;5013628;28;20049;-65
2023/04/04 06:36:50;;;;;;;11.88;4.20;;;;;;;2.31;76.52;102881.38;5045367;28;20057;-65
2023/04/04 06:39:18;;;;;;;12.38;4.45;;;;;;;2.39;76.83;102883.25;5023144;28;20057;-65
2023/04/04 06:41:48;;;;;;;9.27;4.10;;;;;;;2.45;76.29;102877.22;5029206;28;20045;-64
2023/04/04 06:44:16;;;;;;;9.60;3.90;;;;;;;2.47;76.79;102883.28;5065123;28;20493;-68
2023/04/04 06:46:44;;;;;;;10.68;4.18;;;;;;;2.53;75.49;102878.09;5032374;28;20056;-65
2023/04/04 06:49:12;;;;;;;11.32;4.07;;;;;;;2.61;75.12;102876.41;5036160;28;20072;-65
2023/04/04 06:51:41;;;;;;;11.18;4.32;;;;;;;2.67;74.83;102878.44;5016418;28;20489;-64
2023/04/04 06:54:09;;;;;;;9.10;4.60;;;;;;;2.73;74.61;102881.31;5016062;28;20490;-64
2023/04/04 06:56:38;;;;;;;11.55;4.82;;;;;;;2.78;74.52;102878.13;5016129;28;20041;-66
2023/04/04 06:59:05;;;;;;;10.35;4.60;;;;;;;2.84;74.46;102880.19;5033172;28;20049;-66
2023/04/04 07:01:33;;;;;;;10.63;4.35;;;;;;;2.87;74.51;102885.22;5062247;28;20045;-63
2023/04/04 07:04:01;;;;;;;8.63;4.18;;;;;;;2.91;74.33;102883.91;5052155;28;20099;-65
2023/04/04 07:06:30;;;;;;;9.65;4.20;;;;;;;2.95;73.90;102893.31;5044576;28;20050;-64
2023/04/04 07:08:57;;;;;;;7.38;3.75;;;;;;;2.95;74.00;102887.06;5032078;28;20052;-63
2023/04/04 07:11:25;;;;;;;11.40;4.40;;;;;;;2.97;73.30;102888.59;5033267;28;20448;-65
2023/04/04 07:13:53;;;;;;;11.38;4.55;;;;;;;2.99;73.01;102894.66;5032287;28;20049;-66
2023/04/04 07:16:22;;;;;;;7.40;3.75;;;;;;;3.02;73.01;102898.03;5032103;28;20050;-64
2023/04/04 07:18:49;;;;;;;9.13;4.10;;;;;;;3.08;72.78;102894.66;5065032;28;20100;-66
2023/04/04 07:21:19;;;;;;;9.07;3.90;;;;;;;3.14;73.32;102891.31;5032064;28;20112;-65
2023/04/04 07:23:47;;;;;;;10.45;4.32;;;;;;;3.20;72.48;102885.25;5033162;28;20452;-66
2023/04/04 07:26:14;;;;;;;8.98;4.35;;;;;;;3.26;72.48;102889.97;5033240;28;20408;-66
2023/04/04 07:28:42;;;;;;;12.77;4.47;;;;;;;3.28;72.51;102879.88;5029143;28;20124;-66
2023/04/04 07:31:10;;;;;;;9.13;4.40;;;;;;;3.33;72.32;102885.59;5056164;28;20110;-65
2023/04/04 07:33:38;;;;;;;10.95;4.38;;;;;;;3.39;71.76;102879.53;5050339;28;20041;-65
2023/04/04 07:36:06;;;;;;;10.40;3.85;;;;;;;3.46;71.37;102881.53;5049157;28;20114;-64
2023/04/04 07:38:35;;;;;;;11.18;4.00;;;;;;;3.52;71.28;102883.56;5035281;28;20061;-68
2023/04/04 07:41:02;;;;;;;13.98;4.70;;;;;;;3.47;70.54;102880.53;5020561;28;20056;-67
2023/04/04 07:43:30;;;;;;;9.55;4.28;;;;;;;3.46;70.02;102885.06;5046693;28;20068;-67
2023/04/04 07:45:58;;;;;;;10.80;4.50;;;;;;;3.48;69.86;102871.44;5036885;28;20046;-65
2023/04/04 07:48:26;;;;;;;9.65;4.13;;;;;;;3.57;68.92;102886.59;5035377;28;20046;-64
2023/04/04 07:50:54;;;;;;;12.45;4.63;;;;;;;3.60;68.92;102884.38;5035853;28;20087;-65
2023/04/04 07:53:22;;;;;;;10.75;4.20;;;;;;;3.66;68.10;102887.44;5036642;28;20116;-67
2023/04/04 07:55:49;;;;;;;10.52;3.88;;;;;;;3.69;67.57;102879.00;5035639;28;20053;-65
2023/04/04 07:58:17;;;;;;;12.50;4.25;;;;;;;3.74;67.35;102882.84;5036538;28;20037;-65
2023/04/04 08:00:45;;;;;;;11.77;4.45;;;;;;;3.81;67.75;102888.41;5019379;28;20080;-65
2023/04/04 08:03:13;;;;;;;9.07;4.20;;;;;;;3.87;66.10;102881.47;5042572;28;20065;-65
2023/04/04 08:05:41;;;;;;;9.93;4.00;;;;;;;3.87;65.72;102878.75;5043405;28;20424;-65
2023/04/04 08:08:09;;;;;;;12.25;4.20;;;;;;;3.90;65.03;102881.97;5055851;28;20041;-64
2023/04/04 08:10:36;;;;;;;11.57;4.30;;;;;;;3.94;65.42;102883.28;5055101;28;20081;-65
2023/04/04 08:13:05;;;;;;;12.95;4.63;;;;;;;3.94;64.90;102887.84;5040609;28;20053;-64
2023/04/04 08:15:32;;;;;;;16.52;5.18;;;;;;;3.91;63.90;102888.19;5060669;28;20140;-65
2023/04/04 08:18:00;;;;;;;8.70;4.18;;;;;;;3.96;63.90;102891.22;5039500;28;20048;-65
2023/04/04 08:20:28;;;;;;;10.52;4.50;;;;;;;4.05;63.73;102895.56;5036601;28;20516;-65
2023/04/04 08:22:56;;;;;;;10.95;4.28;;;;;;;4.08;62.86;102884.44;5051768;28;20046;-65
2023/04/04 08:25:25;;;;;;;10.13;4.20;;;;;;;4.12;63.28;102890.34;5051749;28;20057;-66
2023/04/04 08:27:53;;;;;;;10.43;4.05;;;;;;;4.13;61.19;102881.22;5034956;28;20073;-66
2023/04/04 08:30:21;;;;;;;9.15;4.20;;;;;;;4.17;61.36;102887.94;5067668;28;20099;-63
2023/04/04 08:32:49;;;;;;;11.57;3.63;;;;;;;4.18;59.56;102887.75;5035219;28;20057;-67
2023/04/04 08:35:16;;;;;;;9.73;3.72;;;;;;;4.23;60.37;102876.44;5051397;28;20563;-65
2023/04/04 08:37:45;;;;;;;6.93;3.10;;;;;;;4.27;59.29;102873.22;5036182;28;20041;-63
2023/04/04 08:40:13;;;;;;;9.68;3.97;;;;;;;4.32;58.88;102874.56;5036184;28;20061;-64
2023/04/04 08:42:44;;;;;;;7.57;3.40;;;;;;;4.33;58.55;102871.69;5035833;28;20081;-64
2023/04/04 08:45:17;;;;;;;9.82;3.65;;;;;;;4.38;59.66;102874.72;5036551;28;20050;-65
2023/04/04 08:47:49;;;;;;;8.35;3.42;;;;;;;4.37;57.75;102873.00;5001932;28;20046;-64
2023/04/04 08:50:17;;;;;;;7.88;3.40;;;;;;;4.39;57.05;102865.59;5035829;28;20076;-65
2023/04/04 08:52:45;;;;;;;8.50;2.95;;;;;;;4.43;56.04;102863.38;5034402;28;20104;-65
2023/04/04 08:55:14;;;;;;;7.97;3.10;;;;;;;4.48;54.78;102866.41;5036073;28;20045;-64
2023/04/04 08:57:42;;;;;;;11.02;2.67;;;;;;;4.50;53.61;102867.06;5034474;28;20041;-65
2023/04/04 09:00:10;;;;;;;10.23;3.47;;;;;;;4.56;54.36;102865.50;5034252;28;20401;-64
2023/04/04 09:02:53;;;;;;;8.98;3.17;;;;;;;4.61;54.62;102863.94;5035732;28;20045;-65
2023/04/04 09:05:21;;;;;;;5.47;2.88;;;;;;;4.63;53.58;102867.31;5036352;28;20103;-65
2023/04/04 09:07:50;;;;;;;9.05;3.30;;;;;;;4.65;54.05;102873.38;5018238;28;20179;-65
2023/04/04 09:10:18;;;;;;;8.40;2.95;;;;;;;4.68;55.74;102870.31;5018583;28;20045;-67
2023/04/04 09:12:46;;;;;;;12.15;3.22;;;;;;;4.77;53.93;102871.09;5034080;28;20061;-63
2023/04/04 09:15:15;;;;;;;7.50;3.20;;;;;;;4.82;53.19;102871.41;5044591;28;20052;-64
2023/04/04 09:17:43;;;;;;;7.72;3.25;;;;;;;4.82;53.55;102862.47;5036039;28;20118;-61
2023/04/04 09:20:37;;;;;;;8.82;2.90;;;;;;;4.82;54.19;102862.47;5060586;28;20033;-64
2023/04/04 09:23:08;;;;;;;7.45;3.35;;;;;;;4.89;54.64;102860.75;5043386;28;20065;-63
2023/04/04 09:25:36;;;;;;;9.73;3.50;;;;;;;4.98;54.17;102859.66;5040491;28;20041;-62
2023/04/04 09:28:05;;;;;;;6.63;3.00;;;;;;;4.97;54.46;102860.66;5019518;28;20046;-64
2023/04/04 09:30:34;;;;;;;6.03;2.83;;;;;;;5.04;52.52;102867.03;5041628;28;20137;-64
2023/04/04 09:33:05;;;;;;;6.80;3.15;;;;;;;5.05;51.74;102863.31;5012968;28;20053;-65
2023/04/04 09:35:40;;;;;;;8.52;3.30;;;;;;;5.04;50.90;102861.63;5053161;28;20095;-66
2023/04/04 09:38:08;;;;;;;9.40;3.10;;;;;;;5.07;51.76;102855.00;5014516;28;20053;-64
2023/04/04 09:40:36;;;;;;;14.30;3.97;;;;;;;5.09;51.94;102856.50;5024857;28;20413;-64
2023/04/04 09:43:07;;;;;;;8.80;3.30;;;;;;;5.16;51.50;102853.94;5034110;28;20104;-64
2023/04/04 09:45:39;;;;;;;11.52;3.70;;;;;;;5.23;51.23;102857.59;5033611;28;20108;-63
2023/04/04 09:48:10;;;;;;;8.55;3.30;;;;;;;5.24;51.12;102850.31;5017368;28;20128;-64
2023/04/04 09:50:45;;;;;;;8.13;3.28;;;;;;;5.32;50.82;102851.09;5035634;28;20045;-61
2023/04/04 09:53:19;;;;;;;8.48;3.25;;;;;;;5.31;50.19;102845.84;5034089;28;20104;-64
2023/04/04 09:55:54;;;;;;;7.13;2.88;;;;;;;5.28;50.83;102854.34;5056010;28;20048;-66
2023/04/04 09:58:27;;;;;;;6.55;3.30;;;;;;;5.31;51.79;102853.97;5038058;28;20045;-65
2023/04/04 10:00:58;;;;;;;8.65;3.40;;;;;;;5.38;51.77;102852.22;5052254;28;20436;-67
2023/04/04 10:03:27;;;;;;;8.20;3.05;;;;;;;5.43;50.94;102848.97;5040699;28;20059;-65
2023/04/04 10:05:56;;;;;;;10.88;3.92;;;;;;;5.46;51.17;102849.44;5039341;28;20072;-65
2023/04/04 10:08:27;;;;;;;8.55;3.72;;;;;;;5.53;50.69;102852.22;5019396;28;20053;-65
2023/04/04 10:11:02;;;;;;;9.05;3.63;;;;;;;5.50;49.82;102848.03;5033193;28;20051;-66
2023/04/04 10:13:45;;;;;;;9.85;4.03;;;;;;;5.52;50.33;102845.16;5065204;28;20045;-65
2023/04/04 10:16:14;;;;;;;10.00;3.53;;;;;;;5.53;50.32;102836.00;5017385;28;20682;-65
2023/04/04 10:18:42;;;;;;;9.73;3.85;;;;;;;5.55;50.57;102845.63;5016666;28;20057;-66
2023/04/04 10:21:09;;;;;;;14.98;3.53;;;;;;;5.61;50.71;102838.66;5049785;28;20168;-66
2023/04/04 10:23:41;;;;;;;8.23;3.70;;;;;;;5.66;51.41;102840.78;5012497;28;20040;-66
2023/04/04 10:26:11;;;;;;;9.18;3.28;;;;;;;5.68;50.63;102845.00;5052660;28;20493;-65
2023/04/04 10:28:41;;;;;;;11.45;3.42;;;;;;;5.70;50.87;102836.69;5083288;28;20051;-68
2023/04/04 10:31:21;;;;;;;6.40;3.25;;;;;;;5.73;51.43;102836.31;5048622;28;20118;-67
2023/04/04 10:34:17;;;;;;;9.60;3.55;;;;;;;5.76;50.38;102839.47;5036278;28;20491;-66
2023/04/04 10:36:49;;;;;;;8.32;3.50;;;;;;;5.79;50.71;102835.56;5021408;28;20490;-66
2023/04/04 10:39:26;;;;;;;8.63;3.35;;;;;;;5.82;50.66;102835.22;4324110;28;10000653;-66
2023/04/04 10:41:55;;;;;;;8.75;3.67;;;;;;;5.87;50.48;102838.19;5013544;28;20084;-67
2023/04/04 10:44:26;;;;;;;7.28;3.38;;;;;;;5.89;49.74;102836.16;5048868;28;20496;-66
2023/04/04 10:46:57;;;;;;;7.45;3.20;;;;;;;5.88;49.88;102834.44;5026148;28;20120;-66
2023/04/04 10:49:28;;;;;;;7.93;3.20;;;;;;;5.92;50.18;102819.53;5042807;28;20080;-66
2023/04/04 10:51:57;;;;;;;9.20;3.22;;;;;;;5.97;51.52;102819.84;5048692;28;20055;-66
2023/04/04 10:54:26;;;;;;;9.70;3.42;;;;;;;6.04;50.83;102814.50;5038784;28;20037;-68
2023/04/04 10:56:59;;;;;;;8.23;3.53;;;;;;;6.05;50.50;102812.63;5029234;28;20266;-66
2023/04/04 10:59:27;;;;;;;6.85;3.40;;;;;;;5.96;50.50;102807.34;5033972;28;20503;-65
2023/04/04 11:01:58;;;;;;;8.52;3.60;;;;;;;5.96;51.25;102804.63;5045873;28;20045;-66
2023/04/04 11:04:33;;;;;;;10.70;3.40;;;;;;;6.10;51.63;102808.34;5033996;28;20060;-66
2023/04/04 11:07:12;;;;;;;9.05;3.58;;;;;;;6.10;50.85;102810.19;5037600;28;20452;-66
2023/04/04 11:09:52;;;;;;;12.65;3.40;;;;;;;6.13;51.64;102801.69;5027803;28;20069;-66
2023/04/04 11:12:27;;;;;;;7.70;3.50;;;;;;;6.15;51.69;102791.53;5042433;28;20084;-66
2023/04/04 11:15:08;;;;;;;9.88;3.50;;;;;;;6.16;50.87;102782.41;5032123;28;20128;-67
2023/04/04 11:17:48;;;;;;;8.05;3.15;;;;;;;6.21;50.41;102789.94;5033531;28;20362;-66
2023/04/04 11:20:21;;;;;;;7.55;2.95;;;;;;;6.26;48.61;102788.34;5037017;28;20473;-66
2023/04/04 11:22:50;;;;;;;7.25;3.42;;;;;;;6.32;48.66;102776.72;5020986;28;20049;-66
2023/04/04 11:25:24;;;;;;;9.88;3.58;;;;;;;6.38;49.44;102773.25;5044894;28;20045;-66
2023/04/04 11:27:56;;;;;;;9.52;3.40;;;;;;;6.46;49.42;102774.19;5072499;28;20480;-66
2023/04/04 11:30:27;;;;;;;6.65;3.15;;;;;;;6.39;49.01;102769.50;5039559;28;20125;-66
2023/04/04 11:32:58;;;;;;;8.52;3.50;;;;;;;6.44;49.63;102768.09;5053757;28;20393;-66
2023/04/04 11:35:38;;;;;;;6.68;3.33;;;;;;;6.50;47.87;102770.06;5045321;28;20053;-66
2023/04/04 11:38:15;;;;;;;7.93;3.42;;;;;;;6.45;48.47;102762.50;5036063;28;20099;-66
2023/04/04 11:40:53;;;;;;;9.98;3.40;;;;;;;6.51;49.10;102763.59;5036331;28;20154;-66
2023/04/04 11:43:21;;;;;;;8.85;3.30;;;;;;;6.55;48.90;102764.91;5035875;28;20179;-66
2023/04/04 11:45:49;;;;;;;10.98;3.50;;;;;;;6.56;48.79;102766.56;5019359;28;20045;-66